sensor_id;sensor_type;location;lat;lon;timestamp;temperature;humidity
21849;DHT22;11089;49.852;19.700;2022-09-09T00:02:27;17.90;99.90
21849;DHT22;11089;49.852;19.700;2022-09-09T00:12:36;17.70;99.90
21849;DHT22;11089;49.852;19.700;2022-09-09T00:16:00;17.70;99.90
21849;DHT22;11089;49.852;19.700;2022-09-09T00:19:26;17.60;99.90
21849;DHT22;11089;49.852;19.700;2022-09-09T00:22:32;17.60;99.90
21849;DHT22;11089;49.852;19.700;2022-09-09T00:25:40;17.60;99.90
21849;DHT22;11089;49.852;19.700;2022-09-09T00:29:09;17.60;99.90
21849;DHT22;11089;49.852;19.700;2022-09-09T00:32:18;17.60;99.90
21849;DHT22;11089;49.852;19.700;2022-09-09T00:35:34;17.50;99.90
21849;DHT22;11089;49.852;19.700;2022-09-09T00:38:43;17.50;99.90
21849;DHT22;11089;49.852;19.700;2022-09-09T00:45:02;17.50;99.90
21849;DHT22;11089;49.852;19.700;2022-09-09T00:48:12;17.40;99.90
21849;DHT22;11089;49.852;19.700;2022-09-09T00:58:10;17.40;99.90
21849;DHT22;11089;49.852;19.700;2022-09-09T01:01:12;17.40;99.90
21849;DHT22;11089;49.852;19.700;2022-09-09T01:04:18;17.30;99.90
21849;DHT22;11089;49.852;19.700;2022-09-09T01:07:23;17.30;99.90
21849;DHT22;11089;49.852;19.700;2022-09-09T01:10:43;17.20;99.90
21849;DHT22;11089;49.852;19.700;2022-09-09T01:13:52;17.30;99.90
21849;DHT22;11089;49.852;19.700;2022-09-09T01:16:58;17.40;99.90
21849;DHT22;11089;49.852;19.700;2022-09-09T01:27:00;17.30;99.90
21849;DHT22;11089;49.852;19.700;2022-09-09T01:30:08;17.10;99.90
21849;DHT22;11089;49.852;19.700;2022-09-09T01:33:15;17.20;99.90
21849;DHT22;11089;49.852;19.700;2022-09-09T01:36:31;17.20;99.90
21849;DHT22;11089;49.852;19.700;2022-09-09T01:39:36;17.20;99.90
21849;DHT22;11089;49.852;19.700;2022-09-09T01:42:38;17.20;99.90
21849;DHT22;11089;49.852;19.700;2022-09-09T01:45:40;17.20;99.90
21849;DHT22;11089;49.852;19.700;2022-09-09T01:48:43;17.10;99.90
21849;DHT22;11089;49.852;19.700;2022-09-09T01:51:48;17.10;99.90
21849;DHT22;11089;49.852;19.700;2022-09-09T01:54:50;17.20;99.90
21849;DHT22;11089;49.852;19.700;2022-09-09T02:01:27;17.00;99.90
21849;DHT22;11089;49.852;19.700;2022-09-09T02:04:47;16.90;99.90
21849;DHT22;11089;49.852;19.700;2022-09-09T02:07:50;17.00;99.90
21849;DHT22;11089;49.852;19.700;2022-09-09T02:11:07;17.00;99.90
21849;DHT22;11089;49.852;19.700;2022-09-09T02:14:16;17.00;99.90
21849;DHT22;11089;49.852;19.700;2022-09-09T02:17:30;17.00;97.50
21849;DHT22;11089;49.852;19.700;2022-09-09T02:20:32;17.00;94.00
21849;DHT22;11089;49.852;19.700;2022-09-09T02:23:35;16.80;97.20
21849;DHT22;11089;49.852;19.700;2022-09-09T02:26:40;16.80;99.90
21849;DHT22;11089;49.852;19.700;2022-09-09T02:29:42;16.80;98.00
21849;DHT22;11089;49.852;19.700;2022-09-09T02:32:46;16.70;99.90
21849;DHT22;11089;49.852;19.700;2022-09-09T02:35:51;16.80;95.10
21849;DHT22;11089;49.852;19.700;2022-09-09T02:38:53;16.80;88.90
21849;DHT22;11089;49.852;19.700;2022-09-09T02:41:55;16.80;83.70
21849;DHT22;11089;49.852;19.700;2022-09-09T02:44:57;16.80;96.30
21849;DHT22;11089;49.852;19.700;2022-09-09T02:51:22;16.80;97.80
21849;DHT22;11089;49.852;19.700;2022-09-09T02:54:30;16.80;94.30
21849;DHT22;11089;49.852;19.700;2022-09-09T02:57:33;16.70;99.90
21849;DHT22;11089;49.852;19.700;2022-09-09T03:00:35;16.80;99.90
21849;DHT22;11089;49.852;19.700;2022-09-09T03:03:40;16.90;97.80
21849;DHT22;11089;49.852;19.700;2022-09-09T03:06:42;17.00;85.40
21849;DHT22;11089;49.852;19.700;2022-09-09T03:09:43;16.90;90.50
21849;DHT22;11089;49.852;19.700;2022-09-09T03:12:45;16.90;95.40
21849;DHT22;11089;49.852;19.700;2022-09-09T03:15:47;16.90;97.70
21849;DHT22;11089;49.852;19.700;2022-09-09T03:18:48;16.80;99.90
21849;DHT22;11089;49.852;19.700;2022-09-09T03:21:49;16.80;99.90
21849;DHT22;11089;49.852;19.700;2022-09-09T03:24:51;16.70;99.90
21849;DHT22;11089;49.852;19.700;2022-09-09T03:27:53;16.90;99.10
21849;DHT22;11089;49.852;19.700;2022-09-09T03:31:02;16.80;99.90
21849;DHT22;11089;49.852;19.700;2022-09-09T03:34:03;16.90;99.90
21849;DHT22;11089;49.852;19.700;2022-09-09T03:37:04;16.80;99.90
21849;DHT22;11089;49.852;19.700;2022-09-09T03:40:06;16.80;99.90
21849;DHT22;11089;49.852;19.700;2022-09-09T03:43:09;16.90;99.90
21849;DHT22;11089;49.852;19.700;2022-09-09T03:46:10;16.80;99.90
21849;DHT22;11089;49.852;19.700;2022-09-09T03:49:11;16.80;99.90
21849;DHT22;11089;49.852;19.700;2022-09-09T03:52:12;16.80;99.90
21849;DHT22;11089;49.852;19.700;2022-09-09T03:55:13;16.90;94.20
21849;DHT22;11089;49.852;19.700;2022-09-09T03:58:15;16.70;99.90
21849;DHT22;11089;49.852;19.700;2022-09-09T04:01:19;16.80;99.90
21849;DHT22;11089;49.852;19.700;2022-09-09T04:04:20;16.70;99.90
21849;DHT22;11089;49.852;19.700;2022-09-09T04:07:21;16.70;99.90
21849;DHT22;11089;49.852;19.700;2022-09-09T04:10:22;16.70;99.90
21849;DHT22;11089;49.852;19.700;2022-09-09T04:13:24;16.70;99.90
21849;DHT22;11089;49.852;19.700;2022-09-09T04:16:25;16.60;99.90
21849;DHT22;11089;49.852;19.700;2022-09-09T04:19:26;16.70;99.90
21849;DHT22;11089;49.852;19.700;2022-09-09T04:22:27;16.70;99.90
21849;DHT22;11089;49.852;19.700;2022-09-09T04:25:28;16.80;99.90
21849;DHT22;11089;49.852;19.700;2022-09-09T04:28:31;16.70;99.90
21849;DHT22;11089;49.852;19.700;2022-09-09T04:31:33;16.70;99.90
21849;DHT22;11089;49.852;19.700;2022-09-09T04:34:33;16.70;99.90
21849;DHT22;11089;49.852;19.700;2022-09-09T04:37:34;16.80;99.90
21849;DHT22;11089;49.852;19.700;2022-09-09T04:40:35;16.80;99.90
21849;DHT22;11089;49.852;19.700;2022-09-09T04:43:37;16.80;99.90
21849;DHT22;11089;49.852;19.700;2022-09-09T04:46:40;16.80;99.90
21849;DHT22;11089;49.852;19.700;2022-09-09T04:49:42;16.80;99.90
21849;DHT22;11089;49.852;19.700;2022-09-09T04:52:42;16.80;99.90
21849;DHT22;11089;49.852;19.700;2022-09-09T04:55:43;16.90;99.90
21849;DHT22;11089;49.852;19.700;2022-09-09T04:58:44;16.90;99.90
21849;DHT22;11089;49.852;19.700;2022-09-09T05:01:46;16.90;99.90
21849;DHT22;11089;49.852;19.700;2022-09-09T05:04:47;16.90;99.90
21849;DHT22;11089;49.852;19.700;2022-09-09T05:07:50;17.00;99.90
21849;DHT22;11089;49.852;19.700;2022-09-09T05:10:50;16.90;99.90
21849;DHT22;11089;49.852;19.700;2022-09-09T05:13:52;17.00;99.90
21849;DHT22;11089;49.852;19.700;2022-09-09T05:16:54;17.00;99.90
21849;DHT22;11089;49.852;19.700;2022-09-09T05:19:54;16.90;99.90
21849;DHT22;11089;49.852;19.700;2022-09-09T05:22:56;17.00;99.90
21849;DHT22;11089;49.852;19.700;2022-09-09T05:25:58;16.90;99.90
21849;DHT22;11089;49.852;19.700;2022-09-09T05:28:59;16.90;99.90
21849;DHT22;11089;49.852;19.700;2022-09-09T05:32:01;16.90;99.90
21849;DHT22;11089;49.852;19.700;2022-09-09T05:35:02;16.90;99.90
21849;DHT22;11089;49.852;19.700;2022-09-09T05:38:03;16.80;99.90
21849;DHT22;11089;49.852;19.700;2022-09-09T05:41:05;16.80;99.90
21849;DHT22;11089;49.852;19.700;2022-09-09T05:44:06;16.80;99.90
21849;DHT22;11089;49.852;19.700;2022-09-09T05:47:07;16.70;99.90
21849;DHT22;11089;49.852;19.700;2022-09-09T05:50:09;16.70;99.90
21849;DHT22;11089;49.852;19.700;2022-09-09T05:53:10;16.70;99.90
21849;DHT22;11089;49.852;19.700;2022-09-09T05:56:14;16.70;99.90
21849;DHT22;11089;49.852;19.700;2022-09-09T05:59:15;16.80;99.90
21849;DHT22;11089;49.852;19.700;2022-09-09T06:02:16;16.80;99.90
21849;DHT22;11089;49.852;19.700;2022-09-09T06:05:17;16.80;99.90
21849;DHT22;11089;49.852;19.700;2022-09-09T06:08:18;16.90;99.90
21849;DHT22;11089;49.852;19.700;2022-09-09T06:11:25;17.00;99.90
21849;DHT22;11089;49.852;19.700;2022-09-09T06:14:26;17.10;99.90
21849;DHT22;11089;49.852;19.700;2022-09-09T06:17:27;17.20;99.90
21849;DHT22;11089;49.852;19.700;2022-09-09T06:20:28;17.30;99.90
21849;DHT22;11089;49.852;19.700;2022-09-09T06:23:31;17.40;99.90
21849;DHT22;11089;49.852;19.700;2022-09-09T06:26:37;17.60;99.90
21849;DHT22;11089;49.852;19.700;2022-09-09T06:29:41;17.60;99.90
21849;DHT22;11089;49.852;19.700;2022-09-09T06:32:42;17.70;99.90
21849;DHT22;11089;49.852;19.700;2022-09-09T06:35:51;17.70;99.90
21849;DHT22;11089;49.852;19.700;2022-09-09T06:38:53;17.80;99.90
21849;DHT22;11089;49.852;19.700;2022-09-09T06:41:54;18.00;99.90
21849;DHT22;11089;49.852;19.700;2022-09-09T06:44:58;18.00;99.90
21849;DHT22;11089;49.852;19.700;2022-09-09T06:47:59;18.10;99.90
21849;DHT22;11089;49.852;19.700;2022-09-09T06:51:04;18.00;99.90
21849;DHT22;11089;49.852;19.700;2022-09-09T06:54:05;18.00;99.90
21849;DHT22;11089;49.852;19.700;2022-09-09T06:57:06;18.20;99.90
21849;DHT22;11089;49.852;19.700;2022-09-09T07:00:08;18.30;99.90
21849;DHT22;11089;49.852;19.700;2022-09-09T07:03:10;18.50;95.30
21849;DHT22;11089;49.852;19.700;2022-09-09T07:06:22;18.70;90.90
21849;DHT22;11089;49.852;19.700;2022-09-09T07:09:26;18.90;38.30
21849;DHT22;11089;49.852;19.700;2022-09-09T07:12:28;19.10;34.60
21849;DHT22;11089;49.852;19.700;2022-09-09T07:15:29;19.20;15.60
21849;DHT22;11089;49.852;19.700;2022-09-09T07:18:29;19.30;1.00
21849;DHT22;11089;49.852;19.700;2022-09-09T07:21:32;19.40;1.00
21849;DHT22;11089;49.852;19.700;2022-09-09T07:24:33;19.50;1.00
21849;DHT22;11089;49.852;19.700;2022-09-09T07:27:34;19.60;1.00
21849;DHT22;11089;49.852;19.700;2022-09-09T07:30:35;19.70;1.00
21849;DHT22;11089;49.852;19.700;2022-09-09T07:33:36;19.80;99.90
21849;DHT22;11089;49.852;19.700;2022-09-09T07:36:38;19.90;1.00
21849;DHT22;11089;49.852;19.700;2022-09-09T07:39:39;20.00;1.00
21849;DHT22;11089;49.852;19.700;2022-09-09T07:42:40;20.00;48.60
21849;DHT22;11089;49.852;19.700;2022-09-09T07:45:41;20.10;98.40
21849;DHT22;11089;49.852;19.700;2022-09-09T07:48:51;20.30;1.00
21849;DHT22;11089;49.852;19.700;2022-09-09T07:51:52;20.40;99.90
21849;DHT22;11089;49.852;19.700;2022-09-09T07:54:53;20.60;99.90
21849;DHT22;11089;49.852;19.700;2022-09-09T07:57:55;20.60;99.90
21849;DHT22;11089;49.852;19.700;2022-09-09T08:00:56;20.60;1.00
21849;DHT22;11089;49.852;19.700;2022-09-09T08:03:59;20.60;1.00
21849;DHT22;11089;49.852;19.700;2022-09-09T08:07:02;20.80;99.90
21849;DHT22;11089;49.852;19.700;2022-09-09T08:10:04;21.10;1.00
21849;DHT22;11089;49.852;19.700;2022-09-09T08:13:06;21.30;1.00
21849;DHT22;11089;49.852;19.700;2022-09-09T08:16:11;21.50;1.00
21849;DHT22;11089;49.852;19.700;2022-09-09T08:19:13;21.60;34.60
21849;DHT22;11089;49.852;19.700;2022-09-09T08:22:15;21.50;1.00
21849;DHT22;11089;49.852;19.700;2022-09-09T08:25:16;21.50;1.00
21849;DHT22;11089;49.852;19.700;2022-09-09T08:28:17;21.40;1.00
21849;DHT22;11089;49.852;19.700;2022-09-09T08:31:21;21.50;99.90
21849;DHT22;11089;49.852;19.700;2022-09-09T08:34:24;21.80;99.90
21849;DHT22;11089;49.852;19.700;2022-09-09T08:37:27;22.00;19.30
21849;DHT22;11089;49.852;19.700;2022-09-09T08:40:33;21.90;1.00
21849;DHT22;11089;49.852;19.700;2022-09-09T08:43:36;22.20;1.00
21849;DHT22;11089;49.852;19.700;2022-09-09T08:53:24;22.80;1.00
21849;DHT22;11089;49.852;19.700;2022-09-09T08:56:32;22.80;75.90
21849;DHT22;11089;49.852;19.700;2022-09-09T08:59:34;22.40;1.00
21849;DHT22;11089;49.852;19.700;2022-09-09T09:02:56;22.50;99.90
21849;DHT22;11089;49.852;19.700;2022-09-09T09:12:43;24.40;1.00
21849;DHT22;11089;49.852;19.700;2022-09-09T09:15:52;25.60;1.00
21849;DHT22;11089;49.852;19.700;2022-09-09T09:18:54;28.40;99.90
21849;DHT22;11089;49.852;19.700;2022-09-09T09:22:00;29.60;99.90
21849;DHT22;11089;49.852;19.700;2022-09-09T09:28:28;30.70;99.90
21849;DHT22;11089;49.852;19.700;2022-09-09T09:31:29;32.00;99.90
21849;DHT22;11089;49.852;19.700;2022-09-09T09:34:30;30.60;99.90
21849;DHT22;11089;49.852;19.700;2022-09-09T09:37:34;29.70;99.90
21849;DHT22;11089;49.852;19.700;2022-09-09T09:40:52;31.30;99.90
21849;DHT22;11089;49.852;19.700;2022-09-09T09:43:55;32.60;99.90
21849;DHT22;11089;49.852;19.700;2022-09-09T09:50:28;36.30;99.90
21849;DHT22;11089;49.852;19.700;2022-09-09T09:53:34;37.80;99.90
21849;DHT22;11089;49.852;19.700;2022-09-09T09:56:36;36.90;99.90
21849;DHT22;11089;49.852;19.700;2022-09-09T09:59:37;37.30;99.90
21849;DHT22;11089;49.852;19.700;2022-09-09T10:02:42;38.90;99.90
21849;DHT22;11089;49.852;19.700;2022-09-09T10:05:47;39.90;99.90
21849;DHT22;11089;49.852;19.700;2022-09-09T10:08:48;38.30;99.90
21849;DHT22;11089;49.852;19.700;2022-09-09T10:12:27;39.20;99.90
21849;DHT22;11089;49.852;19.700;2022-09-09T10:18:46;41.20;99.90
21849;DHT22;11089;49.852;19.700;2022-09-09T10:25:21;41.60;99.90
21849;DHT22;11089;49.852;19.700;2022-09-09T10:28:33;42.80;99.90
21849;DHT22;11089;49.852;19.700;2022-09-09T10:35:09;40.90;99.90
21849;DHT22;11089;49.852;19.700;2022-09-09T10:38:23;42.90;99.90
21849;DHT22;11089;49.852;19.700;2022-09-09T10:44:47;43.50;99.90
21849;DHT22;11089;49.852;19.700;2022-09-09T10:55:14;43.50;99.90
21849;DHT22;11089;49.852;19.700;2022-09-09T10:58:30;41.50;99.90
21849;DHT22;11089;49.852;19.700;2022-09-09T11:01:47;39.90;99.90
21849;DHT22;11089;49.852;19.700;2022-09-09T11:11:32;33.60;99.10
21849;DHT22;11089;49.852;19.700;2022-09-09T11:14:43;34.50;99.90
21849;DHT22;11089;49.852;19.700;2022-09-09T11:17:50;37.00;99.90
21849;DHT22;11089;49.852;19.700;2022-09-09T11:21:02;40.80;99.90
21849;DHT22;11089;49.852;19.700;2022-09-09T11:24:10;42.00;99.90
21849;DHT22;11089;49.852;19.700;2022-09-09T11:27:28;42.30;99.90
21849;DHT22;11089;49.852;19.700;2022-09-09T11:37:39;43.70;99.90
21849;DHT22;11089;49.852;19.700;2022-09-09T11:40:46;42.70;99.90
21849;DHT22;11089;49.852;19.700;2022-09-09T11:43:52;43.50;99.50
21849;DHT22;11089;49.852;19.700;2022-09-09T11:46:53;42.40;99.90
21849;DHT22;11089;49.852;19.700;2022-09-09T11:49:54;42.20;99.50
21849;DHT22;11089;49.852;19.700;2022-09-09T11:56:30;40.30;92.80
21849;DHT22;11089;49.852;19.700;2022-09-09T11:59:32;39.80;83.90
21849;DHT22;11089;49.852;19.700;2022-09-09T12:02:34;38.40;85.20
21849;DHT22;11089;49.852;19.700;2022-09-09T12:05:42;37.00;83.50
21849;DHT22;11089;49.852;19.700;2022-09-09T12:08:48;35.10;66.20
21849;DHT22;11089;49.852;19.700;2022-09-09T12:11:52;32.70;51.10
21849;DHT22;11089;49.852;19.700;2022-09-09T12:17:58;31.50;74.10
21849;DHT22;11089;49.852;19.700;2022-09-09T12:21:15;31.60;83.20
21849;DHT22;11089;49.852;19.700;2022-09-09T12:28:15;31.00;85.80
21849;DHT22;11089;49.852;19.700;2022-09-09T12:38:03;30.20;81.70
21849;DHT22;11089;49.852;19.700;2022-09-09T12:41:25;30.10;86.70
21849;DHT22;11089;49.852;19.700;2022-09-09T12:44:27;29.90;90.10
21849;DHT22;11089;49.852;19.700;2022-09-09T12:47:40;29.50;86.00
21849;DHT22;11089;49.852;19.700;2022-09-09T12:50:49;29.40;88.20
21849;DHT22;11089;49.852;19.700;2022-09-09T12:53:51;29.20;84.40
21849;DHT22;11089;49.852;19.700;2022-09-09T12:56:52;28.80;79.00
21849;DHT22;11089;49.852;19.700;2022-09-09T13:00:11;28.30;75.30
21849;DHT22;11089;49.852;19.700;2022-09-09T13:03:20;27.70;72.30
21849;DHT22;11089;49.852;19.700;2022-09-09T13:06:31;27.70;81.10
21849;DHT22;11089;49.852;19.700;2022-09-09T13:09:32;27.80;84.80
21849;DHT22;11089;49.852;19.700;2022-09-09T13:12:33;27.80;88.30
21849;DHT22;11089;49.852;19.700;2022-09-09T13:15:34;27.60;86.40
21849;DHT22;11089;49.852;19.700;2022-09-09T13:18:39;27.40;89.10
21849;DHT22;11089;49.852;19.700;2022-09-09T13:21:41;27.10;93.30
21849;DHT22;11089;49.852;19.700;2022-09-09T13:24:43;26.80;98.60
21849;DHT22;11089;49.852;19.700;2022-09-09T13:31:18;26.50;99.90
21849;DHT22;11089;49.852;19.700;2022-09-09T13:34:32;26.40;99.90
21849;DHT22;11089;49.852;19.700;2022-09-09T13:37:37;26.10;99.90
21849;DHT22;11089;49.852;19.700;2022-09-09T13:40:39;26.10;99.90
21849;DHT22;11089;49.852;19.700;2022-09-09T13:43:45;25.90;99.90
21849;DHT22;11089;49.852;19.700;2022-09-09T13:47:04;25.80;99.90
21849;DHT22;11089;49.852;19.700;2022-09-09T13:50:29;25.50;99.90
21849;DHT22;11089;49.852;19.700;2022-09-09T13:53:31;25.40;99.90
21849;DHT22;11089;49.852;19.700;2022-09-09T13:56:33;25.70;99.90
21849;DHT22;11089;49.852;19.700;2022-09-09T13:59:35;25.90;99.90
21849;DHT22;11089;49.852;19.700;2022-09-09T14:02:36;25.80;99.90
21849;DHT22;11089;49.852;19.700;2022-09-09T14:05:39;25.50;99.90
21849;DHT22;11089;49.852;19.700;2022-09-09T14:08:40;25.30;99.90
21849;DHT22;11089;49.852;19.700;2022-09-09T14:11:42;25.30;99.90
21849;DHT22;11089;49.852;19.700;2022-09-09T14:14:43;25.20;99.90
21849;DHT22;11089;49.852;19.700;2022-09-09T14:17:44;24.90;99.90
21849;DHT22;11089;49.852;19.700;2022-09-09T14:20:45;24.70;99.90
21849;DHT22;11089;49.852;19.700;2022-09-09T14:23:46;24.70;99.90
21849;DHT22;11089;49.852;19.700;2022-09-09T14:26:47;24.70;99.90
21849;DHT22;11089;49.852;19.700;2022-09-09T14:29:48;24.50;99.90
21849;DHT22;11089;49.852;19.700;2022-09-09T14:32:49;24.40;99.90
21849;DHT22;11089;49.852;19.700;2022-09-09T14:35:59;24.40;99.90
21849;DHT22;11089;49.852;19.700;2022-09-09T14:39:00;24.20;99.90
21849;DHT22;11089;49.852;19.700;2022-09-09T14:42:01;23.90;99.90
21849;DHT22;11089;49.852;19.700;2022-09-09T14:45:03;23.70;99.90
21849;DHT22;11089;49.852;19.700;2022-09-09T14:48:04;23.70;1.00
21849;DHT22;11089;49.852;19.700;2022-09-09T14:51:09;23.60;1.00
21849;DHT22;11089;49.852;19.700;2022-09-09T14:54:10;23.60;99.90
21849;DHT22;11089;49.852;19.700;2022-09-09T14:57:12;23.60;99.90
21849;DHT22;11089;49.852;19.700;2022-09-09T15:00:13;23.60;99.90
21849;DHT22;11089;49.852;19.700;2022-09-09T15:03:14;23.50;99.90
21849;DHT22;11089;49.852;19.700;2022-09-09T15:06:15;23.40;99.90
21849;DHT22;11089;49.852;19.700;2022-09-09T15:09:16;23.20;99.90
21849;DHT22;11089;49.852;19.700;2022-09-09T15:12:17;23.00;1.00
21849;DHT22;11089;49.852;19.700;2022-09-09T15:15:19;22.90;1.00
21849;DHT22;11089;49.852;19.700;2022-09-09T15:18:21;22.90;1.00
21849;DHT22;11089;49.852;19.700;2022-09-09T15:21:24;22.90;1.00
21849;DHT22;11089;49.852;19.700;2022-09-09T15:24:26;22.80;1.00
21849;DHT22;11089;49.852;19.700;2022-09-09T15:27:27;22.60;1.00
21849;DHT22;11089;49.852;19.700;2022-09-09T15:30:28;22.60;1.00
21849;DHT22;11089;49.852;19.700;2022-09-09T15:33:29;22.50;1.00
21849;DHT22;11089;49.852;19.700;2022-09-09T15:36:35;22.40;2.90
21849;DHT22;11089;49.852;19.700;2022-09-09T15:39:36;22.50;27.20
21849;DHT22;11089;49.852;19.700;2022-09-09T15:42:37;22.50;60.60
21849;DHT22;11089;49.852;19.700;2022-09-09T15:45:38;22.30;1.00
21849;DHT22;11089;49.852;19.700;2022-09-09T15:48:39;22.20;99.90
21849;DHT22;11089;49.852;19.700;2022-09-09T15:51:44;21.90;99.90
21849;DHT22;11089;49.852;19.700;2022-09-09T15:54:45;21.80;1.00
21849;DHT22;11089;49.852;19.700;2022-09-09T15:57:46;21.70;1.00
21849;DHT22;11089;49.852;19.700;2022-09-09T16:00:47;21.60;1.00
21849;DHT22;11089;49.852;19.700;2022-09-09T16:03:48;21.50;99.90
21849;DHT22;11089;49.852;19.700;2022-09-09T16:06:56;21.50;1.00
21849;DHT22;11089;49.852;19.700;2022-09-09T16:09:59;21.40;94.20
21849;DHT22;11089;49.852;19.700;2022-09-09T16:12:59;21.40;94.50
21849;DHT22;11089;49.852;19.700;2022-09-09T16:16:01;21.20;99.90
21849;DHT22;11089;49.852;19.700;2022-09-09T16:19:07;21.30;1.00
21849;DHT22;11089;49.852;19.700;2022-09-09T16:22:09;21.50;99.90
21849;DHT22;11089;49.852;19.700;2022-09-09T16:25:11;21.40;1.00
21849;DHT22;11089;49.852;19.700;2022-09-09T16:28:12;21.40;1.00
21849;DHT22;11089;49.852;19.700;2022-09-09T16:31:16;21.40;1.00
21849;DHT22;11089;49.852;19.700;2022-09-09T16:34:18;21.40;99.90
21849;DHT22;11089;49.852;19.700;2022-09-09T16:37:19;21.40;99.90
21849;DHT22;11089;49.852;19.700;2022-09-09T16:40:20;21.20;99.90
21849;DHT22;11089;49.852;19.700;2022-09-09T16:43:21;21.10;1.00
21849;DHT22;11089;49.852;19.700;2022-09-09T16:46:22;20.90;1.00
21849;DHT22;11089;49.852;19.700;2022-09-09T16:49:24;20.70;1.00
21849;DHT22;11089;49.852;19.700;2022-09-09T16:52:25;20.70;1.00
21849;DHT22;11089;49.852;19.700;2022-09-09T16:55:26;20.60;1.00
21849;DHT22;11089;49.852;19.700;2022-09-09T16:58:27;20.50;1.00
21849;DHT22;11089;49.852;19.700;2022-09-09T17:01:31;20.40;1.00
21849;DHT22;11089;49.852;19.700;2022-09-09T17:04:33;20.20;1.00
21849;DHT22;11089;49.852;19.700;2022-09-09T17:07:34;20.30;1.00
21849;DHT22;11089;49.852;19.700;2022-09-09T17:10:41;20.20;1.00
21849;DHT22;11089;49.852;19.700;2022-09-09T17:13:44;20.20;1.00
21849;DHT22;11089;49.852;19.700;2022-09-09T17:16:45;20.10;1.00
21849;DHT22;11089;49.852;19.700;2022-09-09T17:19:47;19.90;1.00
21849;DHT22;11089;49.852;19.700;2022-09-09T17:22:48;20.00;1.00
21849;DHT22;11089;49.852;19.700;2022-09-09T17:25:57;20.00;1.00
21849;DHT22;11089;49.852;19.700;2022-09-09T17:29:00;19.90;1.00
21849;DHT22;11089;49.852;19.700;2022-09-09T17:32:01;19.60;1.00
21849;DHT22;11089;49.852;19.700;2022-09-09T17:35:03;19.30;99.90
21849;DHT22;11089;49.852;19.700;2022-09-09T17:38:06;19.40;99.90
21849;DHT22;11089;49.852;19.700;2022-09-09T17:41:13;19.50;99.90
21849;DHT22;11089;49.852;19.700;2022-09-09T17:44:14;19.40;46.00
21849;DHT22;11089;49.852;19.700;2022-09-09T17:47:16;19.40;99.90
21849;DHT22;11089;49.852;19.700;2022-09-09T17:50:17;19.10;1.00
21849;DHT22;11089;49.852;19.700;2022-09-09T17:53:19;18.90;99.90
21849;DHT22;11089;49.852;19.700;2022-09-09T17:56:21;18.90;1.00
21849;DHT22;11089;49.852;19.700;2022-09-09T17:59:22;18.90;1.00
21849;DHT22;11089;49.852;19.700;2022-09-09T18:02:25;19.00;1.00
21849;DHT22;11089;49.852;19.700;2022-09-09T18:05:26;19.00;1.00
21849;DHT22;11089;49.852;19.700;2022-09-09T18:08:27;18.90;99.90
21849;DHT22;11089;49.852;19.700;2022-09-09T18:11:32;18.60;1.00
21849;DHT22;11089;49.852;19.700;2022-09-09T18:14:33;18.70;1.00
21849;DHT22;11089;49.852;19.700;2022-09-09T18:17:35;18.80;99.90
21849;DHT22;11089;49.852;19.700;2022-09-09T18:20:36;18.70;99.90
21849;DHT22;11089;49.852;19.700;2022-09-09T18:23:39;18.30;1.00
21849;DHT22;11089;49.852;19.700;2022-09-09T18:26:40;18.30;1.00
21849;DHT22;11089;49.852;19.700;2022-09-09T18:29:42;18.00;99.90
21849;DHT22;11089;49.852;19.700;2022-09-09T18:32:43;17.90;99.90
21849;DHT22;11089;49.852;19.700;2022-09-09T18:35:44;18.10;1.00
21849;DHT22;11089;49.852;19.700;2022-09-09T18:38:48;18.30;1.00
21849;DHT22;11089;49.852;19.700;2022-09-09T18:41:51;18.10;1.00
21849;DHT22;11089;49.852;19.700;2022-09-09T18:44:53;18.00;57.80
21849;DHT22;11089;49.852;19.700;2022-09-09T18:47:54;18.10;1.00
21849;DHT22;11089;49.852;19.700;2022-09-09T18:51:01;18.10;99.90
21849;DHT22;11089;49.852;19.700;2022-09-09T18:54:05;18.10;1.00
21849;DHT22;11089;49.852;19.700;2022-09-09T18:57:08;18.00;99.90
21849;DHT22;11089;49.852;19.700;2022-09-09T19:00:10;18.10;99.90
21849;DHT22;11089;49.852;19.700;2022-09-09T19:03:11;18.00;1.00
21849;DHT22;11089;49.852;19.700;2022-09-09T19:06:15;17.90;99.90
21849;DHT22;11089;49.852;19.700;2022-09-09T19:09:17;18.00;99.90
21849;DHT22;11089;49.852;19.700;2022-09-09T19:12:18;18.00;1.00
21849;DHT22;11089;49.852;19.700;2022-09-09T19:15:19;18.00;1.00
21849;DHT22;11089;49.852;19.700;2022-09-09T19:18:20;18.00;46.20
21849;DHT22;11089;49.852;19.700;2022-09-09T19:21:24;17.80;99.90
21849;DHT22;11089;49.852;19.700;2022-09-09T19:24:31;17.80;99.90
21849;DHT22;11089;49.852;19.700;2022-09-09T19:27:32;17.80;1.00
21849;DHT22;11089;49.852;19.700;2022-09-09T19:30:34;17.80;99.90
21849;DHT22;11089;49.852;19.700;2022-09-09T19:33:36;17.80;1.00
21849;DHT22;11089;49.852;19.700;2022-09-09T19:36:38;17.70;99.90
21849;DHT22;11089;49.852;19.700;2022-09-09T19:39:39;17.70;1.00
21849;DHT22;11089;49.852;19.700;2022-09-09T19:42:40;17.60;1.00
21849;DHT22;11089;49.852;19.700;2022-09-09T19:45:41;17.60;32.80
21849;DHT22;11089;49.852;19.700;2022-09-09T19:48:42;17.70;99.90
21849;DHT22;11089;49.852;19.700;2022-09-09T19:51:43;17.60;99.90
21849;DHT22;11089;49.852;19.700;2022-09-09T19:54:44;17.60;1.00
21849;DHT22;11089;49.852;19.700;2022-09-09T19:57:45;17.60;1.00
21849;DHT22;11089;49.852;19.700;2022-09-09T20:00:46;17.50;1.00
21849;DHT22;11089;49.852;19.700;2022-09-09T20:03:49;17.50;1.00
21849;DHT22;11089;49.852;19.700;2022-09-09T20:06:52;17.40;99.90
21849;DHT22;11089;49.852;19.700;2022-09-09T20:09:53;17.30;1.00
21849;DHT22;11089;49.852;19.700;2022-09-09T20:12:54;17.30;99.90
21849;DHT22;11089;49.852;19.700;2022-09-09T20:16:06;17.30;1.00
21849;DHT22;11089;49.852;19.700;2022-09-09T20:19:09;17.20;1.00
21849;DHT22;11089;49.852;19.700;2022-09-09T20:22:11;17.30;99.90
21849;DHT22;11089;49.852;19.700;2022-09-09T20:25:12;17.30;1.00
21849;DHT22;11089;49.852;19.700;2022-09-09T20:28:15;17.30;20.70
21849;DHT22;11089;49.852;19.700;2022-09-09T20:31:21;17.10;99.90
21849;DHT22;11089;49.852;19.700;2022-09-09T20:34:23;16.90;1.00
21849;DHT22;11089;49.852;19.700;2022-09-09T20:37:26;17.00;8.70
21849;DHT22;11089;49.852;19.700;2022-09-09T20:40:27;16.90;1.00
21849;DHT22;11089;49.852;19.700;2022-09-09T20:43:28;16.90;1.00
21849;DHT22;11089;49.852;19.700;2022-09-09T20:46:32;16.90;1.00
21849;DHT22;11089;49.852;19.700;2022-09-09T20:49:33;16.90;1.00
21849;DHT22;11089;49.852;19.700;2022-09-09T20:52:34;17.00;1.00
21849;DHT22;11089;49.852;19.700;2022-09-09T20:55:35;17.00;1.00